Whitleys Peak, Santa Catalina Island Weather observations

Data are for 10 minute period ending at time listed.
 Day   Time   Solar   Ave.   Ave.  Ave.  Vector    Max.   Stn.    Total
  of    of     Rad.   Air    Rel.  Wind   Wind     Wind   Baro.  Precip.
Year   Day            Temp.  Hum.  Speed  Dir.     Gust   Pres.         
2014   (PST)   W/m2    F      %     mph   deg.      mph    mb.     in.  
------------------------------------------------------------------------
 328   12:00  577.0    68   18.7    11     85.8    15.5    999.0   0.00  
 328   12:10  567.0    68   18.7    11     83.0    13.7    999.0   0.00  
 328   12:20  577.0    68   17.9    10     92.2    14.3    999.0   0.00  
 328   12:30  448.0    68   17.0     8     93.5    11.9    999.0   0.00  
 328   12:40  566.0    68   16.1     7     82.1    11.3    999.0   0.00  
 328   12:50  560.0    69   15.3     7     73.8     9.6    999.0   0.00  
 328   13:00  554.0    69   14.6     7     80.2    11.3    999.0   0.00  
 328   13:10  544.0    70   14.4     8     90.1    10.8    999.0   0.00  
 328   13:20  519.0    70   14.4     6     91.8     9.6    999.0   0.00  
 328   13:30  512.0    70   14.4     6    101.8     9.6    999.0   0.00  
 328   13:40  504.0    70   14.9     4     76.1     7.2    999.0   0.00  
 328   13:50  484.0    70   15.3     4     36.9     6.6    999.0   0.00  
 328   14:00  468.0    70   15.2     3     22.0     6.0    999.0   0.00  
 328   14:10  448.0    70   15.1     4     17.5     7.2    999.0   0.00  
 328   14:20  426.0    70   15.2     5     27.9     7.8    999.0   0.00  
 328   14:30  407.0    70   15.5     6     32.5     9.6    999.0   0.00  
 328   14:40  382.0    70   15.8     5     37.4     7.8    999.0   0.00  
 328   14:50  357.0    70   15.8     6     30.1     9.6    999.0   0.00  
 328   15:00  331.0    71   16.1     5     41.3     9.0    999.0   0.00  
 328   15:10  305.0    71   15.9     6     25.8     8.4    999.0   0.00  
 328   15:20  277.0    71   15.7     5      6.3     7.2    999.0   0.00  
 328   15:30  248.0    71   15.8     6     35.3     7.8    999.0   0.00  
 328   15:40  219.0    71   15.8     6     27.1     7.8    999.0   0.00  
 328   15:50  189.0    70   15.7     6     22.7     7.2    999.0   0.00  
 328   16:00  159.0    70   16.4     6     32.0     9.0    999.0   0.00  
 328   16:10  129.0    70   17.1     8     30.8    12.5    999.0   0.00  
 328   16:20   91.0    70   17.5     9     23.9    12.5    999.0   0.00  
 328   16:30   49.0    69   18.0    10     30.1    13.7    999.0   0.00  
 328   16:40   39.0    69   18.6    12     37.9    15.5    999.0   0.00  
 328   16:50   16.0    69   19.6    16     43.1    20.9    999.0   0.00  
 328   17:00    3.0    68   20.6    16     43.9    20.9    999.0   0.00  
 328   17:10    0.0    69   20.7    18     63.2    25.6    999.0   0.00  
 328   17:20    0.0    69   20.4    19     62.7    25.0    999.0   0.00  
 328   17:30    0.0    68   20.7    16     70.2    22.1    999.0   0.00  
 328   17:40    0.0    68   20.8    18     61.9    22.7    999.0   0.00  
 328   17:50    0.0    68   21.1    18     65.5    25.6    999.0   0.00  
 328   18:00    0.0    68   21.0    19     57.6    23.9    999.0   0.00  
 328   18:10    0.0    68   20.9    17     56.0    23.3    999.0   0.00  
 328   18:20    0.0    68   21.0    17     55.2    22.1    999.0   0.00  
 328   18:30    0.0    68   21.2    16     55.9    25.6    999.0   0.00  
 328   18:40    0.0    68   21.2    16     68.0    22.7    999.0   0.00  
 328   18:50    0.0    67   21.5    17     52.8    21.5    999.0   0.00  
 328   19:00    0.0    67   22.0    19     48.7    25.6    999.0   0.00  
 328   19:10    0.0    67   22.2    17     49.0    23.9    999.0   0.00  
 328   19:20    0.0    67   22.1    16     48.5    23.9    999.0   0.00  
 328   19:30    0.0    67   22.1    18     47.4    26.2    999.0   0.00  
 328   19:40    0.0    67   22.2    20     50.0    28.0    999.0   0.00  
 328   19:50    0.0    67   22.8    17     48.1    24.5    999.0   0.00  
 328   20:00    0.0    67   23.3    16     49.0    21.5    999.0   0.00  
 328   20:10    0.0    67   24.2    16     48.4    20.9    999.0   0.00  
 328   20:20    0.0    66   24.6    15     42.3    21.5    999.0   0.00  
 328   20:30    0.0    66   24.2    14     47.2    20.3    999.0   0.00  
 328   20:40    0.0    66   23.9    12     48.0    19.7    999.0   0.00  
 328   20:50    0.0    66   25.2    12     53.4    16.7    999.0   0.00  
 328   21:00    0.0    66   26.2     7     48.2    11.3    999.0   0.00  
 328   21:10    0.0    66   26.8     7     54.3    10.8    999.0   0.00  
 328   21:20    0.0    66   25.9     8     68.5    12.5    999.0   0.00  
 328   21:30    0.0    66   24.3    12     71.9    17.9    999.0   0.00  
 328   21:40    0.0    66   23.8    10     67.2    16.1    999.0   0.00  
 328   21:50    0.0    66   24.1    11     61.6    16.1    999.0   0.00  
 328   22:00    0.0    66   25.3     8     67.9    10.2    999.0   0.00  
 328   22:10    0.0    66   25.6     7     48.0    10.8    999.0   0.00  
 328   22:20    0.0    66   25.4     7     59.4     9.6    999.0   0.00  
 328   22:30    0.0    66   25.0     8     48.7     9.6    999.0   0.00  
 328   22:40    0.0    66   25.2     7     46.5     9.6    999.0   0.00  
 328   22:50    0.0    66   27.3    10     74.7    11.9    999.0   0.00  
 328   23:00    0.0    65   29.3     9     78.9    11.3    999.0   0.00  
 328   23:10    0.0    65   29.4     7     86.0     9.0    999.0   0.00  
 328   23:20    0.0    66   25.7     8     80.8    10.2    999.0   0.00  
 328   23:30    0.0    66   24.7     8     86.6     9.6    999.0   0.00  
 328   23:40    0.0    66   23.9     7    106.3     9.0    999.0   0.00  
 328   23:50    0.0    66   24.1     8    119.8     9.6    999.0   0.00  
 329    0:00    0.0    65   24.1     8    116.1    10.8    999.0   0.00  
 329    0:10    0.0    64   25.7     5    125.1     6.6    999.0   0.00  
 329    0:20    0.0    64   26.8     4    103.9     5.4    999.0   0.00  
 329    0:30    0.0    65   25.9     7    111.7     9.0    999.0   0.00  
 329    0:40    0.0    65   25.1     7    117.9     9.0    999.0   0.00  
 329    0:50    0.0    65   23.4     9    118.2    10.8    999.0   0.00  
 329    1:00    0.0    66   21.8    10    123.4    11.9    999.0   0.00  
 329    1:10    0.0    66   19.8     8    117.6     9.6    999.0   0.00  
 329    1:20    0.0    67   19.2     7    112.3     9.0    999.0   0.00  
 329    1:30    0.0    66   19.2     8    115.4     9.6    999.0   0.00  
 329    1:40    0.0    67   19.0     8    107.7     9.0    999.0   0.00  
 329    1:50    0.0    67   18.9     8    101.5     9.0    999.0   0.00  
 329    2:00    0.0    67   18.9     7     93.9     8.4    999.0   0.00  
 329    2:10    0.0    67   18.7     8     96.4     9.0    999.0   0.00  
 329    2:20    0.0    68   18.4    10     75.2    11.3    999.0   0.00  
 329    2:30    0.0    68   17.5    10     73.8    11.9    999.0   0.00  
 329    2:40    0.0    68   16.9    10     70.3    11.9    999.0   0.00  
 329    2:50    0.0    68   16.7    10     77.2    11.3    999.0   0.00  
 329    3:00    0.0    68   17.0     9     68.2    10.2    999.0   0.00  
 329    3:10    0.0    68   16.9     9     65.9    10.8    999.0   0.00  
 329    3:20    0.0    68   17.0     9     70.4    10.8    999.0   0.00  
 329    3:30    0.0    68   16.3    10     87.5    11.3    999.0   0.00  
 329    3:40    0.0    68   15.9    10     88.1    11.9    999.0   0.00  
 329    3:50    0.0    68   15.8     9     82.5    11.3    999.0   0.00  
 329    4:00    0.0    68   15.8     8     90.1    10.2    999.0   0.00  
 329    4:10    0.0    68   15.1     6     76.4     7.2    999.0   0.00  
 329    4:20    0.0    68   15.1     4     98.2     4.8    999.0   0.00  
 329    4:30    0.0    67   15.9     5     99.5     8.4    999.0   0.00  
 329    4:40    0.0    64   22.2     6    117.5    10.8    999.0   0.00  
 329    4:50    0.0    66   18.2     4     84.6     5.4    999.0   0.00  
 329    5:00    0.0    66   19.0     4    120.9     6.0    999.0   0.00  
 329    5:10    0.0    67   16.7     4    115.9     5.4    999.0   0.00  
 329    5:20    0.0    67   16.6     6    126.4     6.6    999.0   0.00  
 329    5:30    0.0    67   16.5     5    116.6     6.6    999.0   0.00  
 329    5:40    0.0    66   17.2     6    109.7     7.2    999.0   0.00  
 329    5:50    0.0    66   17.8     7    100.9     8.4    999.0   0.00  
 329    6:00    0.0    66   18.6     6    103.4     7.2    999.0   0.00  
 329    6:10    0.0    66   19.2     6    108.1     7.2    999.0   0.00  
 329    6:20    0.0    66   19.0     6    114.1     7.2    999.0   0.00  
 329    6:30    0.0    66   18.4     6    108.2     6.6    999.0   0.00  
 329    6:40    4.0    66   18.6     6    104.5     7.8    999.0   0.00  
 329    6:50    8.0    66   19.3     5    114.9     6.6    999.0   0.00  
 329    7:00   21.0    67   16.9     6    107.4     8.4    999.0   0.00  
 329    7:10   40.0    67   15.9     6    104.8     7.8    999.0   0.00  
 329    7:20   69.0    68   15.9     6     98.4     8.4    999.0   0.00  
 329    7:30   99.0    68   15.9     6    114.0     9.0    999.0   0.00  
 329    7:40  130.0    69   15.7     7    113.5     9.0    999.0   0.00  
 329    7:50  157.0    70   15.0     6    116.5     8.4    999.0   0.00  
 329    8:00  185.0    71   14.6     5    119.5     7.2    999.0   0.00  
 329    8:10  213.0    71   15.6     5    120.4     7.2    999.0   0.00  
 329    8:20  240.0    70   17.3     5    112.1     7.2    999.0   0.00  
 329    8:30  267.0    70   17.3     6     94.5     8.4    999.0   0.00  
 329    8:40  294.0    70   17.7     6     93.5     9.0    999.0   0.00  
 329    8:50  320.0    69   16.3     7     83.1     8.4    999.0   0.00  
 329    9:00  345.0    70   22.4     7     87.0     9.0    999.0   0.00  
 329    9:10  369.0    69   36.3     5    101.9     7.2    999.0   0.00  
 329    9:20  393.0    68   33.0     4    105.0     5.4    999.0   0.00  
 329    9:30  416.0    70   29.0     5    100.7     8.4    999.0   0.00  
 329    9:40  436.0    69   37.0     5     98.4     7.2    999.0   0.00  
 329    9:50  455.0    69   32.4     4     75.1     6.6    999.0   0.00  
 329   10:00  474.0    72   27.9     4    101.0     7.2    999.0   0.00  
 329   10:10  490.0    70   31.4     5     97.0     7.2    999.0   0.00  
 329   10:20  506.0    71   31.5     4     66.5     6.0    999.0   0.00  
 329   10:30  520.0    70   32.3     5     96.3     8.4    999.0   0.00  
 329   10:40  534.0    71   31.7     5    103.2     7.2    999.0   0.00  
 329   10:50  545.0    71   31.4     4     85.0     6.0    999.0   0.00  
 329   11:00  557.0    70   30.3     3     53.7     6.6    999.0   0.00  
 329   11:10  564.0    71   31.6     4     76.4     6.6    999.0   0.00  
 329   11:20  571.0    71   32.8     4     64.0     6.0    999.0   0.00  
 329   11:30  576.0    70   32.4     3     45.2     6.0    999.0   0.00  
 329   11:40  579.0    70   31.3     4     48.4     7.2    999.0   0.00  
 329   11:50  581.0    71   30.1     5     70.5     7.2    999.0   0.00  

Return to Whitleys Peak graphs page.


Western Regional Climate Center,wrcc@dri.edu